Snowmass, Colorado
Current Conditions -  °F | °C
As of 8:37 PM on Monday 20 Oct 2014 (Local Time) from K5SM Reporting Station
Scattered Clouds Scattered Clouds  
Wind Chill: 45°   Ceiling: Unl
Heat Index: 45°   Visibility: 10mi
Dew Point: 34°   Wind: 0mph
Humidity: 66%   Direction: NA
Pressure: 30.4"   Gusts: NA
Location:  39.33°N, 106.99°W
Report Text: K5SM 210237Z AUTO 00000KT 10SM SCT070 07/01 A3040 RMK AO2
Loading
Personal Weather Stations






























Interactive Weather Map New forecast layout! Learn more

10-Day Weather Forecast

Advertisements
Track Severe Weather on mobile